Airfield :
LOGIN :

Register | Disclaimer

   EN    FR    IT 

 










Legend :    VFR   Marginal VFR   IFR   Intensive IFR   Very Intensive IFR
Visi :
Ceiling :
>= 8 km
>= 3000ft
5 to 8 km
1000 to 3000 ft
1500m to 5 km
500 to 1000 ft
800 to 1500m
200 to 500 ft
< 800m
< 200 ft
Symbols :   Thunderstorms  Fog  Heavy snow  Heavy precipitations  Wind > 20 kt
SIGMETs :     Misc.  Thunderstorms  Icing  Turbulence  Mountain Waves  Volcanic Ashes







- Airport Elevation : 157 ft
- IATA code : LIL
- Download approach charts


LFQQ - Lille Lesquin

CURRENT METAR :
  • 201200Z AUTO 31010KT 9999 OVC010 12/10 Q1011 NOSIG

EXPIRED METARs :
  • 201130Z AUTO 33010KT 9999 OVC009 12/10 Q1011 BECMG BKN020
  • 201100Z AUTO 32011KT 290V350 9999 OVC008 12/10 Q1011 BECMG BKN020
  • 201030Z AUTO 32011KT 9999 OVC007 12/10 Q1010 BECMG BKN020
  • 201000Z AUTO 32012KT 9000 OVC007 11/10 Q1010 BECMG BKN020
  • 200930Z AUTO 32011KT 8000 OVC007 11/10 Q1010 BECMG BKN020

TAF TAF LFQQ
Valid from the 20 at 12:00 until the 21 at 18:00 UTC


201100Z 2012/2118 34008KT 8000 BKN020
TEMPO 2012/2014 BKN008
BECMG 2021/2024 OVC006
TEMPO 2100/2106 3000 BR OVC003
BECMG 2109/2112 BKN020
ATIS : +33 3 20 16 19 54
No reported NOTAMs for that airfield.



MET'MAP, your aeronautical weather chart ! - Copyright ORBIFLY December 2007 - Disclaimer

ORBIFLY MET'MAP TEAM :

Programming & Development : Alexandra Zaïnal
Concept & Development : Baudouin d'Aumeries
Co-Development & Prog : Marc-Olivier Méhu
Technical & hardware support : Manuel Goepfert

Contact : metmap@orbifly.com




SOURCES & CREDITS :

   NOAA